createdAt,value
2019-05-20T00:00:19.023Z,81.50
2019-05-20T00:01:18.999Z,81.44
2019-05-20T00:02:25.849Z,81.81
2019-05-20T00:03:19.975Z,81.50
2019-05-20T00:04:18.981Z,81.60
2019-05-20T00:05:18.971Z,81.44
2019-05-20T00:06:18.956Z,81.74
2019-05-20T00:07:18.934Z,81.85
2019-05-20T00:08:18.923Z,81.54
2019-05-20T00:09:18.912Z,81.81
2019-05-20T00:10:18.901Z,81.85
2019-05-20T00:11:18.928Z,81.74
2019-05-20T00:12:18.955Z,81.13
2019-05-20T00:13:18.870Z,81.54
2019-05-20T00:14:18.862Z,81.64
2019-05-20T00:15:18.852Z,82.15
2019-05-20T00:16:18.897Z,82.25
2019-05-20T00:17:18.838Z,81.74
2019-05-20T00:18:18.828Z,81.74
2019-05-20T00:19:18.807Z,81.81
2019-05-20T00:20:18.795Z,81.50
2019-05-20T00:21:18.785Z,81.71
2019-05-20T00:22:18.774Z,81.64
2019-05-20T00:23:18.773Z,81.64
2019-05-20T00:24:18.794Z,81.64
2019-05-20T00:25:18.743Z,81.85
2019-05-20T00:26:18.733Z,82.45
2019-05-20T00:27:18.728Z,82.15
2019-05-20T00:28:18.711Z,81.74
2019-05-20T00:29:18.711Z,81.54
2019-05-20T00:30:18.702Z,81.64
2019-05-20T00:31:18.680Z,81.44
2019-05-20T00:32:18.671Z,81.64
2019-05-20T00:33:18.659Z,81.54
2019-05-20T00:34:32.705Z,81.74
2019-05-20T00:35:19.650Z,82.05
2019-05-20T00:36:18.640Z,81.34
2019-05-20T00:37:18.616Z,81.74
2019-05-20T00:38:18.657Z,81.74
2019-05-20T00:39:18.595Z,81.64
2019-05-20T00:40:18.585Z,81.68
2019-05-20T00:41:18.586Z,82.19
2019-05-20T00:42:18.594Z,82.09
2019-05-20T00:43:18.553Z,82.39
2019-05-20T00:44:18.541Z,83.24
2019-05-20T00:45:18.537Z,83.04
2019-05-20T00:46:18.520Z,82.90
2019-05-20T00:47:18.521Z,82.80
2019-05-20T00:48:18.514Z,82.94
2019-05-20T00:49:18.497Z,83.45
2019-05-20T00:50:18.480Z,83.24
2019-05-20T00:51:18.473Z,83.34
2019-05-20T00:52:18.463Z,83.34
2019-05-20T00:53:18.459Z,83.24
2019-05-20T00:54:18.503Z,83.54
2019-05-20T00:55:18.427Z,83.79
2019-05-20T00:56:18.417Z,83.79
2019-05-20T00:57:18.405Z,83.59
2019-05-20T00:58:18.395Z,83.89
2019-05-20T00:59:18.396Z,84.09
2019-05-20T01:00:18.386Z,84.09
2019-05-20T01:01:18.364Z,84.40
2019-05-20T01:02:18.352Z,84.30
2019-05-20T01:03:18.342Z,84.40
2019-05-20T01:04:18.333Z,84.30
2019-05-20T01:05:18.334Z,84.05
2019-05-20T01:06:18.326Z,84.20
2019-05-20T01:07:18.299Z,84.20
2019-05-20T01:08:18.291Z,84.20
2019-05-20T01:09:18.279Z,85.21
2019-05-20T01:10:18.268Z,84.09
2019-05-20T01:11:18.273Z,83.99
2019-05-20T01:12:18.288Z,83.79
2019-05-20T01:13:18.233Z,83.59
2019-05-20T01:14:18.296Z,83.99
2019-05-20T01:15:18.216Z,84.09
2019-05-20T01:16:18.202Z,84.23
2019-05-20T01:17:18.203Z,85.21
2019-05-20T01:18:18.193Z,85.25
2019-05-20T01:19:18.172Z,85.72
2019-05-20T01:20:18.157Z,86.27
2019-05-20T01:21:18.146Z,86.02
2019-05-20T01:22:18.137Z,86.13
2019-05-20T01:23:18.140Z,86.16
2019-05-20T01:24:18.137Z,86.37
2019-05-20T01:25:18.109Z,86.83
2019-05-20T01:26:18.093Z,86.74
2019-05-20T01:27:18.082Z,86.57
2019-05-20T01:28:18.074Z,86.33
2019-05-20T01:29:18.078Z,86.53
2019-05-20T01:30:18.058Z,86.13
2019-05-20T01:31:18.040Z,86.02
2019-05-20T01:32:18.027Z,86.13
2019-05-20T01:33:18.018Z,86.13
2019-05-20T01:34:18.008Z,85.72
2019-05-20T01:35:18.023Z,85.62
2019-05-20T01:36:17.993Z,85.41
2019-05-20T01:37:17.974Z,85.72
2019-05-20T01:38:17.963Z,85.58
2019-05-20T01:39:17.961Z,85.62
2019-05-20T01:40:17.942Z,85.27
2019-05-20T01:41:18.112Z,85.62
2019-05-20T01:42:17.933Z,85.52
2019-05-20T01:43:17.908Z,85.31
2019-05-20T01:44:17.899Z,85.21
2019-05-20T01:45:17.887Z,85.21
2019-05-20T01:46:17.877Z,85.21
2019-05-20T01:47:17.885Z,85.41
2019-05-20T01:48:17.865Z,85.21
2019-05-20T01:49:17.844Z,85.15
2019-05-20T01:50:17.866Z,85.01
2019-05-20T01:51:17.823Z,85.21
2019-05-20T01:52:17.811Z,85.35
2019-05-20T01:53:17.810Z,85.55
2019-05-20T01:54:17.801Z,85.76
2019-05-20T01:55:17.777Z,85.76
2019-05-20T01:56:17.767Z,85.86
2019-05-20T01:57:17.758Z,86.07
2019-05-20T01:58:17.753Z,86.07
2019-05-20T01:59:17.744Z,85.96
2019-05-20T02:00:17.733Z,85.96
2019-05-20T02:01:17.732Z,86.37
2019-05-20T02:02:17.703Z,86.07
2019-05-20T02:03:31.131Z,86.27
2019-05-20T02:04:18.689Z,86.07
2019-05-20T02:05:17.669Z,86.16
2019-05-20T02:06:17.668Z,86.16
2019-05-20T02:07:17.648Z,86.37
2019-05-20T02:08:17.644Z,86.27
2019-05-20T02:09:17.626Z,86.31
2019-05-20T02:10:17.635Z,86.21
2019-05-20T02:11:17.602Z,85.90
2019-05-20T02:12:17.604Z,86.41
2019-05-20T02:13:17.583Z,86.51
2019-05-20T02:14:17.623Z,86.51
2019-05-20T02:15:17.562Z,86.31
2019-05-20T02:16:17.560Z,86.61
2019-05-20T02:17:17.538Z,86.51
2019-05-20T02:18:17.540Z,86.71
2019-05-20T02:19:17.515Z,86.71
2019-05-20T02:20:17.504Z,86.82
2019-05-20T02:21:17.494Z,86.82
2019-05-20T02:22:17.495Z,87.12
2019-05-20T02:23:17.470Z,86.92
2019-05-20T02:24:17.475Z,87.12
2019-05-20T02:25:17.499Z,87.23
2019-05-20T02:26:17.439Z,87.32
2019-05-20T02:27:17.428Z,87.32
2019-05-20T02:28:17.446Z,87.12
2019-05-20T02:29:17.409Z,87.12
2019-05-20T02:30:17.410Z,87.32
2019-05-20T02:31:17.384Z,86.41
2019-05-20T02:32:17.372Z,86.71
2019-05-20T02:33:17.366Z,86.92
2019-05-20T02:34:17.371Z,86.71
2019-05-20T02:35:17.344Z,86.41
2019-05-20T02:36:17.340Z,86.65
2019-05-20T02:37:17.327Z,87.12
2019-05-20T02:38:17.309Z,87.12
2019-05-20T02:39:17.304Z,86.96
2019-05-20T02:40:17.296Z,87.23
2019-05-20T02:41:17.280Z,87.16
2019-05-20T02:42:17.297Z,87.26
2019-05-20T02:43:17.256Z,87.77
2019-05-20T02:44:17.247Z,87.98
2019-05-20T02:45:17.232Z,88.08
2019-05-20T02:46:17.255Z,87.98
2019-05-20T02:47:17.220Z,88.69
2019-05-20T02:48:17.216Z,88.48
2019-05-20T02:49:17.193Z,88.39
2019-05-20T02:50:17.200Z,88.48
2019-05-20T02:51:17.174Z,88.48
2019-05-20T02:52:17.169Z,88.79
2019-05-20T02:53:17.152Z,89.30
2019-05-20T02:54:17.163Z,89.09
2019-05-20T02:55:17.127Z,89.14
2019-05-20T02:56:17.117Z,88.93
2019-05-20T02:57:17.104Z,89.85
2019-05-20T02:58:17.110Z,89.44
2019-05-20T02:59:17.090Z,89.54
2019-05-20T03:00:17.082Z,89.54
2019-05-20T03:01:17.066Z,90.05
2019-05-20T03:02:17.060Z,89.95
2019-05-20T03:03:17.052Z,90.36
2019-05-20T03:04:17.047Z,90.05
2019-05-20T03:05:17.027Z,90.66
2019-05-20T03:06:17.017Z,90.77
2019-05-20T03:07:17.005Z,90.36
2019-05-20T03:08:16.994Z,90.56
2019-05-20T03:09:16.986Z,90.36
2019-05-20T03:10:16.981Z,90.05
2019-05-20T03:11:16.959Z,90.36
2019-05-20T03:12:16.962Z,90.25
2019-05-20T03:13:16.940Z,90.77
2019-05-20T03:14:16.930Z,90.36
2019-05-20T03:15:16.922Z,90.66
2019-05-20T03:16:16.915Z,90.56
2019-05-20T03:17:16.894Z,90.86
2019-05-20T03:18:16.898Z,89.95
2019-05-20T03:19:16.904Z,90.20
2019-05-20T03:20:16.875Z,90.40
2019-05-20T03:21:16.854Z,90.91
2019-05-20T03:22:16.861Z,90.70
2019-05-20T03:23:16.834Z,90.46
2019-05-20T03:24:16.832Z,90.46
2019-05-20T03:25:16.818Z,90.46
2019-05-20T03:26:16.798Z,90.50
2019-05-20T03:27:16.788Z,90.86
2019-05-20T03:28:16.790Z,90.66
2019-05-20T03:29:16.780Z,90.46
2019-05-20T03:30:16.794Z,90.66
2019-05-20T03:31:16.744Z,90.70
2019-05-20T03:32:16.736Z,90.60
2019-05-20T03:33:16.733Z,90.66
2019-05-20T03:34:42.114Z,90.30
2019-05-20T03:35:17.721Z,89.99
2019-05-20T03:36:16.721Z,90.50
2019-05-20T03:37:16.702Z,90.70
2019-05-20T03:38:16.680Z,90.50
2019-05-20T03:39:16.660Z,90.70
2019-05-20T03:40:16.659Z,90.91
2019-05-20T03:41:16.651Z,90.60
2019-05-20T03:42:16.638Z,91.22
2019-05-20T03:43:16.621Z,90.70
2019-05-20T03:44:16.606Z,90.81
2019-05-20T03:45:16.618Z,91.01
2019-05-20T03:46:16.609Z,90.60
2019-05-20T03:47:16.583Z,91.01
2019-05-20T03:48:16.575Z,91.72
2019-05-20T03:49:16.552Z,91.72
2019-05-20T03:50:16.552Z,92.74
2019-05-20T03:51:16.553Z,91.83
2019-05-20T03:52:16.530Z,91.62
2019-05-20T03:53:16.509Z,92.23
2019-05-20T03:54:16.513Z,91.58
2019-05-20T03:55:16.499Z,92.23
2019-05-20T03:56:16.483Z,92.09
2019-05-20T03:57:16.487Z,91.93
2019-05-20T03:58:16.468Z,92.29
2019-05-20T03:59:16.462Z,92.09
2019-05-20T04:00:16.442Z,92.19
2019-05-20T04:01:16.492Z,91.58
2019-05-20T04:02:16.416Z,91.58
2019-05-20T04:03:16.426Z,91.99
2019-05-20T04:04:16.412Z,91.58
2019-05-20T04:05:16.383Z,91.48
2019-05-20T04:06:16.379Z,91.58
2019-05-20T04:07:16.366Z,91.74
2019-05-20T04:08:16.347Z,91.48
2019-05-20T04:09:16.336Z,91.64
2019-05-20T04:10:16.343Z,91.64
2019-05-20T04:11:16.325Z,92.04
2019-05-20T04:12:16.316Z,91.53
2019-05-20T04:13:16.315Z,92.45
2019-05-20T04:14:16.282Z,91.74
2019-05-20T04:15:16.285Z,91.84
2019-05-20T04:16:16.282Z,91.64
2019-05-20T04:17:16.252Z,92.55
2019-05-20T04:18:16.248Z,91.74
2019-05-20T04:19:16.249Z,91.43
2019-05-20T04:20:16.222Z,92.25
2019-05-20T04:21:16.207Z,91.64
2019-05-20T04:22:16.224Z,92.25
2019-05-20T04:23:16.188Z,91.49
2019-05-20T04:24:16.184Z,91.60
2019-05-20T04:25:16.174Z,91.39
2019-05-20T04:26:16.156Z,91.29
2019-05-20T04:27:16.207Z,91.23
2019-05-20T04:28:16.183Z,92.10
2019-05-20T04:29:16.117Z,91.60
2019-05-20T04:30:18.838Z,91.43
2019-05-20T04:31:16.105Z,91.60
2019-05-20T04:32:16.091Z,92.10
2019-05-20T04:33:16.083Z,92.10
2019-05-20T04:34:16.075Z,91.94
2019-05-20T04:35:22.487Z,92.04
2019-05-20T04:36:17.057Z,91.90
2019-05-20T04:37:16.031Z,92.55
2019-05-20T04:38:16.025Z,92.14
2019-05-20T04:39:16.020Z,92.25
2019-05-20T04:40:16.011Z,92.25
2019-05-20T04:41:16.006Z,92.55
2019-05-20T04:42:15.993Z,92.45
2019-05-20T04:43:15.974Z,92.41
2019-05-20T04:44:15.967Z,92.65
2019-05-20T04:45:15.944Z,92.65
2019-05-20T04:46:15.946Z,92.51
2019-05-20T04:47:15.928Z,93.32
2019-05-20T04:48:15.925Z,92.96
2019-05-20T04:49:15.905Z,92.71
2019-05-20T04:50:15.896Z,93.12
2019-05-20T04:51:15.892Z,93.43
2019-05-20T04:52:15.888Z,93.43
2019-05-20T04:53:15.860Z,93.43
2019-05-20T04:54:15.856Z,93.32
2019-05-20T04:55:15.859Z,93.32
2019-05-20T04:56:15.831Z,93.43
2019-05-20T04:57:15.820Z,93.43
2019-05-20T04:58:15.819Z,93.06
2019-05-20T04:59:15.794Z,93.02
2019-05-20T05:00:15.797Z,93.52
2019-05-20T05:01:15.773Z,93.57
2019-05-20T05:02:15.767Z,93.43
2019-05-20T05:03:15.754Z,93.63
2019-05-20T05:04:15.755Z,93.32
2019-05-20T05:05:15.733Z,93.43
2019-05-20T05:06:15.732Z,93.43
2019-05-20T05:07:15.711Z,93.52
2019-05-20T05:08:15.703Z,93.43
2019-05-20T05:09:15.853Z,93.93
2019-05-20T05:10:15.697Z,93.83
2019-05-20T05:11:15.668Z,93.83
2019-05-20T05:12:15.665Z,93.32
2019-05-20T05:13:15.648Z,93.89
2019-05-20T05:14:15.636Z,93.48
2019-05-20T05:15:15.622Z,93.28
2019-05-20T05:16:15.623Z,93.79
2019-05-20T05:17:15.608Z,93.68
2019-05-20T05:18:15.607Z,93.38
2019-05-20T05:19:15.588Z,93.38
2019-05-20T05:20:18.496Z,93.79
2019-05-20T05:21:15.558Z,93.48
2019-05-20T05:22:15.559Z,93.28
2019-05-20T05:23:15.538Z,93.44
2019-05-20T05:24:15.539Z,93.68
2019-05-20T05:25:15.518Z,93.44
2019-05-20T05:26:15.509Z,93.13
2019-05-20T05:27:15.495Z,93.44
2019-05-20T05:28:15.493Z,93.13
2019-05-20T05:29:15.478Z,93.95
2019-05-20T05:30:15.488Z,93.03
2019-05-20T05:31:15.453Z,92.93
2019-05-20T05:32:15.468Z,93.13
2019-05-20T05:33:15.435Z,93.03
2019-05-20T05:34:15.430Z,93.13
2019-05-20T05:35:15.436Z,92.93
2019-05-20T05:36:15.414Z,93.24
2019-05-20T05:37:15.389Z,93.03
2019-05-20T05:38:15.385Z,93.13
2019-05-20T05:39:15.374Z,93.19
2019-05-20T05:40:15.397Z,94.00
2019-05-20T05:41:15.356Z,92.89
2019-05-20T05:42:15.395Z,92.99
2019-05-20T05:43:15.325Z,92.99
2019-05-20T05:44:15.314Z,92.89
2019-05-20T05:45:15.314Z,93.33
2019-05-20T05:46:15.303Z,93.19
2019-05-20T05:47:15.290Z,92.99
2019-05-20T05:48:15.284Z,93.29
2019-05-20T05:49:15.262Z,93.80
2019-05-20T05:50:15.251Z,93.84
2019-05-20T05:51:15.246Z,92.99
2019-05-20T05:52:15.248Z,94.15
2019-05-20T05:53:15.227Z,93.24
2019-05-20T05:54:15.229Z,93.40
2019-05-20T05:55:15.196Z,93.24
2019-05-20T05:56:15.193Z,93.84
2019-05-20T05:57:15.177Z,93.80
2019-05-20T05:58:15.187Z,93.60
2019-05-20T05:59:15.168Z,93.60
2019-05-20T06:00:15.155Z,94.21
2019-05-20T06:01:15.134Z,93.70
2019-05-20T06:02:15.127Z,93.09
2019-05-20T06:03:15.114Z,93.09
2019-05-20T06:04:15.128Z,93.19
2019-05-20T06:05:15.094Z,93.40
2019-05-20T06:06:15.091Z,93.19
2019-05-20T06:07:15.072Z,93.40
2019-05-20T06:08:15.065Z,93.49
2019-05-20T06:09:15.055Z,93.60
2019-05-20T06:10:15.053Z,93.70
2019-05-20T06:11:15.033Z,93.40
2019-05-20T06:12:15.026Z,93.60
2019-05-20T06:13:15.009Z,93.60
2019-05-20T06:14:15.004Z,93.70
2019-05-20T06:15:14.994Z,93.60
2019-05-20T06:16:14.992Z,94.10
2019-05-20T06:17:14.971Z,93.70
2019-05-20T06:18:14.964Z,93.49
2019-05-20T06:19:14.976Z,93.25
2019-05-20T06:20:14.930Z,93.49
2019-05-20T06:21:14.922Z,93.86
2019-05-20T06:22:14.919Z,93.35
2019-05-20T06:23:14.901Z,93.45
2019-05-20T06:24:14.896Z,92.33
2019-05-20T06:25:14.885Z,92.64
2019-05-20T06:26:14.931Z,93.05
2019-05-20T06:27:14.856Z,93.15
2019-05-20T06:28:14.857Z,92.03
2019-05-20T06:29:14.830Z,92.79
2019-05-20T06:30:14.834Z,92.03
2019-05-20T06:31:14.813Z,92.03
2019-05-20T06:32:15.097Z,92.24
2019-05-20T06:33:14.787Z,92.28
2019-05-20T06:34:14.959Z,92.48
2019-05-20T06:35:14.908Z,92.48
2019-05-20T06:36:26.566Z,93.19
2019-05-20T06:37:15.742Z,93.25
2019-05-20T06:38:14.737Z,93.40
2019-05-20T06:39:14.730Z,92.48
2019-05-20T06:40:14.721Z,93.40
2019-05-20T06:41:14.702Z,93.49
2019-05-20T06:42:14.697Z,93.29
2019-05-20T06:43:14.678Z,93.19
2019-05-20T06:44:14.665Z,92.99
2019-05-20T06:45:14.655Z,93.40
2019-05-20T06:46:14.656Z,92.79
2019-05-20T06:47:14.633Z,92.48
2019-05-20T06:48:14.637Z,92.28
2019-05-20T06:49:14.611Z,92.18
2019-05-20T06:50:14.602Z,92.03
2019-05-20T06:51:14.591Z,92.07
2019-05-20T06:52:14.591Z,92.03
2019-05-20T06:53:14.569Z,92.28
2019-05-20T06:54:14.569Z,92.48
2019-05-20T06:55:14.545Z,91.87
2019-05-20T06:56:14.534Z,92.38
2019-05-20T06:57:14.617Z,92.79
2019-05-20T06:58:14.529Z,92.24
2019-05-20T06:59:14.505Z,91.87
2019-05-20T07:00:14.503Z,91.73
2019-05-20T07:01:14.480Z,91.16
2019-05-20T07:02:14.470Z,91.93
2019-05-20T07:03:14.458Z,92.03
2019-05-20T07:04:14.466Z,92.24
2019-05-20T07:05:14.437Z,91.42
2019-05-20T07:06:14.448Z,91.42
2019-05-20T07:07:20.825Z,92.03
2019-05-20T07:08:15.405Z,91.73
2019-05-20T07:09:14.394Z,91.32
2019-05-20T07:10:14.398Z,91.83
2019-05-20T07:11:14.390Z,91.63
2019-05-20T07:12:14.367Z,91.93
2019-05-20T07:13:16.369Z,91.52
2019-05-20T07:14:14.377Z,91.93
2019-05-20T07:15:14.327Z,91.32
2019-05-20T07:16:14.348Z,90.41
2019-05-20T07:17:14.303Z,91.22
2019-05-20T07:18:14.304Z,91.22
2019-05-20T07:19:14.283Z,90.71
2019-05-20T07:20:14.270Z,91.63
2019-05-20T07:21:14.260Z,91.32
2019-05-20T07:22:14.261Z,91.83
2019-05-20T07:23:14.237Z,90.71
2019-05-20T07:24:14.243Z,91.12
2019-05-20T07:25:14.216Z,91.32
2019-05-20T07:26:14.205Z,91.63
2019-05-20T07:27:14.193Z,90.71
2019-05-20T07:28:14.196Z,90.92
2019-05-20T07:29:14.197Z,90.36
2019-05-20T07:30:15.549Z,91.08
2019-05-20T07:31:14.154Z,90.57
2019-05-20T07:32:14.142Z,90.47
2019-05-20T07:33:14.129Z,91.38
2019-05-20T07:34:14.130Z,90.36
2019-05-20T07:35:28.895Z,90.16
2019-05-20T07:36:15.109Z,90.36
2019-05-20T07:37:14.086Z,90.42
2019-05-20T07:38:14.075Z,90.36
2019-05-20T07:39:14.067Z,90.12
2019-05-20T07:40:14.065Z,90.36
2019-05-20T07:41:14.043Z,90.02
2019-05-20T07:42:14.041Z,90.36
2019-05-20T07:43:14.024Z,89.76
2019-05-20T07:44:14.011Z,89.72
2019-05-20T07:45:14.020Z,89.72
2019-05-20T07:46:14.005Z,89.72
2019-05-20T07:47:13.985Z,90.16
2019-05-20T07:48:13.981Z,89.92
2019-05-20T07:49:13.958Z,89.51
2019-05-20T07:50:13.949Z,89.81
2019-05-20T07:51:13.942Z,89.61
2019-05-20T07:52:13.970Z,89.61
2019-05-20T07:53:13.915Z,90.02
2019-05-20T07:54:13.929Z,89.41
2019-05-20T07:55:13.895Z,89.01
2019-05-20T07:56:13.885Z,89.31
2019-05-20T07:57:13.879Z,90.06
2019-05-20T07:58:13.889Z,89.72
2019-05-20T07:59:13.853Z,89.81
2019-05-20T08:00:13.855Z,88.96
2019-05-20T08:01:13.853Z,88.90
2019-05-20T08:02:13.821Z,89.31
2019-05-20T08:03:13.809Z,89.51
2019-05-20T08:04:13.878Z,89.51
2019-05-20T08:05:13.796Z,89.26
2019-05-20T08:06:13.792Z,89.37
2019-05-20T08:07:27.483Z,89.37
2019-05-20T08:08:14.755Z,88.46
2019-05-20T08:09:13.745Z,88.66
2019-05-20T08:10:13.791Z,88.35
2019-05-20T08:11:13.724Z,88.05
2019-05-20T08:12:13.723Z,88.05
2019-05-20T08:13:13.703Z,88.05
2019-05-20T08:14:13.692Z,88.35
2019-05-20T08:15:13.683Z,88.05
2019-05-20T08:16:13.685Z,87.95
2019-05-20T08:17:13.666Z,87.85
2019-05-20T08:18:13.660Z,88.46
2019-05-20T08:19:13.645Z,87.95
2019-05-20T08:20:13.629Z,88.05
2019-05-20T08:21:13.621Z,87.71
2019-05-20T08:22:13.619Z,87.81
2019-05-20T08:23:13.605Z,87.81
2019-05-20T08:24:13.600Z,87.40
2019-05-20T08:25:13.576Z,87.20
2019-05-20T08:26:13.563Z,87.71
2019-05-20T08:27:13.564Z,87.20
2019-05-20T08:28:13.558Z,87.71
2019-05-20T08:29:13.531Z,87.81
2019-05-20T08:30:14.279Z,87.51
2019-05-20T08:31:13.522Z,87.71
2019-05-20T08:32:13.496Z,87.81
2019-05-20T08:33:13.485Z,87.60
2019-05-20T08:34:13.485Z,87.30
2019-05-20T08:35:13.467Z,87.71
2019-05-20T08:36:13.464Z,87.40
2019-05-20T08:37:13.486Z,87.81
2019-05-20T08:38:13.431Z,87.66
2019-05-20T08:39:13.421Z,88.07
2019-05-20T08:40:13.421Z,87.30
2019-05-20T08:41:13.399Z,87.36
2019-05-20T08:42:13.402Z,87.97
2019-05-20T08:43:13.376Z,87.77
2019-05-20T08:44:13.365Z,87.46
2019-05-20T08:45:13.356Z,86.85
2019-05-20T08:46:13.360Z,87.05
2019-05-20T08:47:13.332Z,86.91
2019-05-20T08:48:13.337Z,87.05
2019-05-20T08:49:13.315Z,86.76
2019-05-20T08:50:16.095Z,87.02
2019-05-20T08:51:13.290Z,86.82
2019-05-20T08:52:13.344Z,86.51
2019-05-20T08:53:13.274Z,86.61
2019-05-20T08:54:13.271Z,87.02
2019-05-20T08:55:13.247Z,86.71
2019-05-20T08:56:13.252Z,86.51
2019-05-20T08:57:13.231Z,86.00
2019-05-20T08:58:13.244Z,86.41
2019-05-20T08:59:13.205Z,86.00
2019-05-20T09:00:13.207Z,86.10
2019-05-20T09:01:13.185Z,86.71
2019-05-20T09:02:13.187Z,86.71
2019-05-20T09:03:13.161Z,86.71
2019-05-20T09:04:13.161Z,86.71
2019-05-20T09:05:13.144Z,86.07
2019-05-20T09:06:13.153Z,85.80
2019-05-20T09:07:13.122Z,85.96
2019-05-20T09:08:13.107Z,85.66
2019-05-20T09:09:13.096Z,85.36
2019-05-20T09:10:13.099Z,84.95
2019-05-20T09:11:13.075Z,85.16
2019-05-20T09:12:13.076Z,85.25
2019-05-20T09:13:13.052Z,84.65
2019-05-20T09:14:13.050Z,85.16
2019-05-20T09:15:13.031Z,85.05
2019-05-20T09:16:13.037Z,85.05
2019-05-20T09:17:13.011Z,85.16
2019-05-20T09:18:13.023Z,85.05
2019-05-20T09:19:12.993Z,85.16
2019-05-20T09:20:12.977Z,85.11
2019-05-20T09:21:13.080Z,85.22
2019-05-20T09:22:12.978Z,84.81
2019-05-20T09:23:12.948Z,84.81
2019-05-20T09:24:12.947Z,84.91
2019-05-20T09:25:12.967Z,85.02
2019-05-20T09:26:12.915Z,83.80
2019-05-20T09:27:12.927Z,84.71
2019-05-20T09:28:12.912Z,84.81
2019-05-20T09:29:12.885Z,84.85
2019-05-20T09:30:12.884Z,84.95
2019-05-20T09:31:13.123Z,84.81
2019-05-20T09:32:12.852Z,84.95
2019-05-20T09:33:12.915Z,85.25
2019-05-20T09:34:12.869Z,85.25
2019-05-20T09:35:12.829Z,85.05
2019-05-20T09:36:12.819Z,85.22
2019-05-20T09:37:12.810Z,85.42
2019-05-20T09:38:20.262Z,85.52
2019-05-20T09:39:13.815Z,85.22
2019-05-20T09:40:12.768Z,84.87
2019-05-20T09:41:12.753Z,84.57
2019-05-20T09:42:12.781Z,84.77
2019-05-20T09:43:12.733Z,84.67
2019-05-20T09:44:12.723Z,83.76
2019-05-20T09:45:12.733Z,83.96
2019-05-20T09:46:12.712Z,84.11
2019-05-20T09:47:12.690Z,83.96
2019-05-20T09:48:12.690Z,83.86
2019-05-20T09:49:12.669Z,84.91
2019-05-20T09:50:12.658Z,84.91
2019-05-20T09:51:12.667Z,84.77
2019-05-20T09:52:12.639Z,84.71
2019-05-20T09:53:12.629Z,84.91
2019-05-20T09:54:12.632Z,84.71
2019-05-20T09:55:12.604Z,84.71
2019-05-20T09:56:12.599Z,84.61
2019-05-20T09:57:12.594Z,84.81
2019-05-20T09:58:12.573Z,84.81
2019-05-20T09:59:16.209Z,84.87
2019-05-20T10:00:12.561Z,84.67
2019-05-20T10:01:12.540Z,84.87
2019-05-20T10:02:12.535Z,84.77
2019-05-20T10:03:12.542Z,84.27
2019-05-20T10:04:12.508Z,83.50
2019-05-20T10:05:12.504Z,83.96
2019-05-20T10:06:12.517Z,84.81
2019-05-20T10:07:12.478Z,85.05
2019-05-20T10:08:12.466Z,85.86
2019-05-20T10:09:12.469Z,85.66
2019-05-20T10:10:12.444Z,86.22
2019-05-20T10:11:12.463Z,86.22
2019-05-20T10:12:12.450Z,85.62
2019-05-20T10:13:12.420Z,84.91
2019-05-20T10:14:12.403Z,84.81
2019-05-20T10:15:12.406Z,84.71
2019-05-20T10:16:12.379Z,84.71
2019-05-20T10:17:12.368Z,84.81
2019-05-20T10:18:12.378Z,84.61
2019-05-20T10:19:12.347Z,84.77
2019-05-20T10:20:12.336Z,84.57
2019-05-20T10:21:12.343Z,84.77
2019-05-20T10:22:12.316Z,84.87
2019-05-20T10:23:15.725Z,84.67
2019-05-20T10:24:12.310Z,84.57
2019-05-20T10:25:12.282Z,84.67
2019-05-20T10:26:12.272Z,84.77
2019-05-20T10:27:12.273Z,84.67
2019-05-20T10:28:12.253Z,84.67
2019-05-20T10:29:12.240Z,84.77
2019-05-20T10:30:12.237Z,84.67
2019-05-20T10:31:12.233Z,84.91
2019-05-20T10:32:12.210Z,84.77
2019-05-20T10:33:12.216Z,84.97
2019-05-20T10:34:12.188Z,84.97
2019-05-20T10:35:12.188Z,85.08
2019-05-20T10:36:12.175Z,84.87
2019-05-20T10:37:12.155Z,84.87
2019-05-20T10:38:12.145Z,85.08
2019-05-20T10:39:12.146Z,84.87
2019-05-20T10:40:12.122Z,84.97
2019-05-20T10:41:12.137Z,84.67
2019-05-20T10:42:12.111Z,84.87
2019-05-20T10:43:12.091Z,84.17
2019-05-20T10:44:12.080Z,84.63
2019-05-20T10:45:12.081Z,84.12
2019-05-20T10:46:12.059Z,84.03
2019-05-20T10:47:12.048Z,84.12
2019-05-20T10:48:12.048Z,84.03
2019-05-20T10:49:12.028Z,84.03
2019-05-20T10:50:12.016Z,84.83
2019-05-20T10:51:12.054Z,84.87
2019-05-20T10:52:11.996Z,84.17
2019-05-20T10:53:11.988Z,84.73
2019-05-20T10:54:11.987Z,84.83
2019-05-20T10:55:11.965Z,84.93
2019-05-20T10:56:12.149Z,84.17
2019-05-20T10:57:11.958Z,84.37
2019-05-20T10:58:11.932Z,84.67
2019-05-20T10:59:12.494Z,84.67
2019-05-20T11:00:11.920Z,83.96
2019-05-20T11:01:11.900Z,83.86
2019-05-20T11:02:11.889Z,84.17
2019-05-20T11:03:11.895Z,84.03
2019-05-20T11:04:11.869Z,84.12
2019-05-20T11:05:11.860Z,83.22
2019-05-20T11:06:11.975Z,83.52
2019-05-20T11:07:11.838Z,83.52
2019-05-20T11:08:11.829Z,83.01
2019-05-20T11:09:14.422Z,83.01
2019-05-20T11:10:11.806Z,83.42
2019-05-20T11:11:14.355Z,83.48
2019-05-20T11:12:11.795Z,83.38
2019-05-20T11:13:11.774Z,83.28
2019-05-20T11:14:11.763Z,82.98
2019-05-20T11:15:11.765Z,83.38
2019-05-20T11:16:11.751Z,82.87
2019-05-20T11:17:14.962Z,82.87
2019-05-20T11:18:11.733Z,82.98
2019-05-20T11:19:11.710Z,82.43
2019-05-20T11:20:11.699Z,82.57
2019-05-20T11:21:11.725Z,82.43
2019-05-20T11:22:11.680Z,82.64
2019-05-20T11:23:11.666Z,82.17
2019-05-20T11:24:11.664Z,82.57
2019-05-20T11:25:11.647Z,82.64
2019-05-20T11:26:11.635Z,82.23
2019-05-20T11:27:11.652Z,81.42
2019-05-20T11:28:12.106Z,81.62
2019-05-20T11:29:11.604Z,81.32
2019-05-20T11:30:11.601Z,81.32
2019-05-20T11:31:11.583Z,81.22
2019-05-20T11:32:11.572Z,81.42
2019-05-20T11:33:11.575Z,80.88
2019-05-20T11:34:11.546Z,81.18
2019-05-20T11:35:11.543Z,81.28
2019-05-20T11:36:11.538Z,80.51
2019-05-20T11:37:11.515Z,81.38
2019-05-20T11:38:11.509Z,80.58
2019-05-20T11:39:11.511Z,80.68
2019-05-20T11:40:12.299Z,80.78
2019-05-20T11:41:11.472Z,81.18
2019-05-20T11:42:11.471Z,80.68
2019-05-20T11:43:11.448Z,80.98
2019-05-20T11:44:12.116Z,81.28
2019-05-20T11:45:11.437Z,81.28
2019-05-20T11:46:11.418Z,81.38
2019-05-20T11:47:11.406Z,81.18
2019-05-20T11:48:11.410Z,80.78
2019-05-20T11:49:11.389Z,81.28
2019-05-20T11:50:11.377Z,81.38
2019-05-20T11:51:11.373Z,80.88
2019-05-20T11:52:11.353Z,81.35
2019-05-20T11:53:11.346Z,80.74
2019-05-20T11:54:11.340Z,81.28
2019-05-20T11:55:11.327Z,80.88
2019-05-20T11:56:12.090Z,80.64
2019-05-20T11:57:11.310Z,81.35
2019-05-20T11:58:15.728Z,81.18
2019-05-20T11:59:12.275Z,81.18
2019-05-20T12:00:11.274Z,81.24
2019-05-20T12:01:11.256Z,81.28
2019-05-20T12:02:11.247Z,80.98
2019-05-20T12:03:11.254Z,81.68
2019-05-20T12:04:11.223Z,81.89
2019-05-20T12:05:11.224Z,81.18
2019-05-20T12:06:11.228Z,80.88
2019-05-20T12:07:11.193Z,80.98
2019-05-20T12:08:11.181Z,81.45
2019-05-20T12:09:11.181Z,81.24
2019-05-20T12:10:11.162Z,81.45
2019-05-20T12:11:11.151Z,80.33
2019-05-20T12:12:11.160Z,80.24
2019-05-20T12:13:11.138Z,81.24
2019-05-20T12:14:11.119Z,81.24
2019-05-20T12:15:11.117Z,81.35
2019-05-20T12:16:11.097Z,81.75
2019-05-20T12:17:11.086Z,81.21
2019-05-20T12:18:11.086Z,81.24
2019-05-20T12:19:11.066Z,81.21
2019-05-20T12:20:12.485Z,81.30
2019-05-20T12:21:11.053Z,80.70
2019-05-20T12:22:11.033Z,80.30
2019-05-20T12:23:11.026Z,80.20
2019-05-20T12:24:11.021Z,79.69
2019-05-20T12:25:11.004Z,80.10
2019-05-20T12:26:11.011Z,80.60
2019-05-20T12:27:10.993Z,80.50
2019-05-20T12:28:10.975Z,80.00
2019-05-20T12:29:10.960Z,80.90
2019-05-20T12:30:10.976Z,80.60
2019-05-20T12:31:10.938Z,80.46
2019-05-20T12:32:10.927Z,80.10
2019-05-20T12:33:18.636Z,79.60
2019-05-20T12:34:11.908Z,80.06
2019-05-20T12:35:11.157Z,79.80
2019-05-20T12:36:11.018Z,79.69
2019-05-20T12:37:10.880Z,79.69
2019-05-20T12:38:10.867Z,79.36
2019-05-20T12:39:10.873Z,79.36
2019-05-20T12:40:10.860Z,79.36
2019-05-20T12:41:10.833Z,78.96
2019-05-20T12:42:11.020Z,78.96
2019-05-20T12:43:10.812Z,79.05
2019-05-20T12:44:13.099Z,78.25
2019-05-20T12:45:10.801Z,78.85
2019-05-20T12:46:10.788Z,79.11
2019-05-20T12:47:10.788Z,79.02
2019-05-20T12:48:10.768Z,78.91
2019-05-20T12:49:10.923Z,79.02
2019-05-20T12:50:10.738Z,78.51
2019-05-20T12:51:14.348Z,77.91
2019-05-20T12:52:10.743Z,78.07